Time;durP1;ratioP1;P1;durP2;ratioP2;P2;SDS_P1;SDS_P2;PMS_P1;PMS_P2;Temp;Humidity;BMP_temperature;BMP_pressure;BME280_temperature;BME280_humidity;BME280_pressure;Samples;Min_cycle;Max_cycle;Signal;HPM_P1;HPM_P2
2021/01/17 00:00:04;;;;;;;45.33;25.87;;;1.50;87.10;;;;;;5035825;28;20029;-78
2021/01/17 00:02:30;;;;;;;44.53;26.50;;;1.40;87.20;;;;;;5036911;28;20174;-77
2021/01/17 00:04:55;;;;;;;50.07;28.43;;;1.40;87.40;;;;;;5019745;28;20116;-74
2021/01/17 00:07:21;;;;;;;48.97;27.20;;;1.50;87.40;;;;;;5002895;28;20021;-74
2021/01/17 00:09:47;;;;;;;48.67;25.27;;;1.50;87.60;;;;;;5003210;28;20087;-73
2021/01/17 00:12:12;;;;;;;43.43;26.10;;;1.70;87.90;;;;;;5053592;28;20081;-74
2021/01/17 00:14:38;;;;;;;41.03;24.13;;;1.80;87.70;;;;;;5036462;28;20104;-75
2021/01/17 00:17:04;;;;;;;39.63;24.80;;;1.90;87.50;;;;;;5019155;28;20025;-76
2021/01/17 00:19:30;;;;;;;40.53;24.27;;;2.00;87.30;;;;;;5053518;28;20025;-74
2021/01/17 00:21:56;;;;;;;40.33;24.10;;;1.90;86.70;;;;;;5053841;28;20028;-74
2021/01/17 00:24:22;;;;;;;40.23;23.13;;;1.90;86.90;;;;;;5035091;28;20098;-74
2021/01/17 00:26:47;;;;;;;40.07;24.90;;;1.90;86.90;;;;;;5036109;28;20447;-73
2021/01/17 00:29:13;;;;;;;39.47;22.77;;;2.00;86.70;;;;;;5018877;28;20033;-74
2021/01/17 00:31:39;;;;;;;39.60;24.80;;;2.00;86.80;;;;;;5019812;28;20033;-75
2021/01/17 00:34:04;;;;;;;40.40;24.67;;;2.00;86.50;;;;;;5035456;28;20033;-80
2021/01/17 00:36:37;;;;;;;45.77;23.43;;;2.00;86.50;;;;;;5019616;28;20131;-74
2021/01/17 00:39:04;;;;;;;41.35;24.58;;;1.90;86.50;;;;;;5035722;28;20025;-80
2021/01/17 00:41:31;;;;;;;37.93;23.70;;;1.90;86.00;;;;;;5035393;28;20037;-79
2021/01/17 00:43:56;;;;;;;38.90;23.50;;;1.80;85.90;;;;;;5018316;28;20052;-75
2021/01/17 00:46:22;;;;;;;40.97;24.20;;;1.80;86.30;;;;;;5035410;28;20519;-76
2021/01/17 00:48:48;;;;;;;36.60;22.13;;;1.90;86.60;;;;;;5019273;28;20477;-75
2021/01/17 00:51:13;;;;;;;42.23;24.03;;;1.90;86.50;;;;;;5018033;28;20142;-74
2021/01/17 00:53:39;;;;;;;37.07;22.70;;;2.00;86.60;;;;;;5053189;28;20131;-75
2021/01/17 00:56:05;;;;;;;36.80;22.23;;;2.20;86.60;;;;;;5002471;28;20028;-80
2021/01/17 00:58:30;;;;;;;36.20;21.40;;;2.30;86.80;;;;;;5034839;28;20037;-75
2021/01/17 01:00:56;;;;;;;37.10;21.57;;;2.40;86.70;;;;;;5018965;28;20124;-76
2021/01/17 01:03:22;;;;;;;35.83;21.63;;;2.40;86.40;;;;;;5034532;28;20083;-75
2021/01/17 01:05:48;;;;;;;32.27;20.60;;;2.40;86.30;;;;;;5035273;28;20412;-74
2021/01/17 01:08:14;;;;;;;39.40;22.43;;;2.40;86.10;;;;;;5018126;28;20059;-74
2021/01/17 01:10:39;;;;;;;34.70;21.17;;;2.40;86.00;;;;;;5035242;28;20045;-74
2021/01/17 01:13:05;;;;;;;33.37;20.33;;;2.40;86.00;;;;;;5053270;28;20029;-74
2021/01/17 01:15:30;;;;;;;34.17;20.87;;;2.50;86.20;;;;;;5052075;28;20757;-74
2021/01/17 01:17:58;;;;;;;35.97;20.93;;;2.50;86.00;;;;;;5019125;28;20025;-74
2021/01/17 01:20:24;;;;;;;36.37;21.83;;;2.50;85.70;;;;;;5018034;28;20396;-75
2021/01/17 01:22:49;;;;;;;38.70;22.90;;;2.40;85.60;;;;;;5035497;28;20040;-76
2021/01/17 01:25:15;;;;;;;39.57;22.90;;;2.40;85.70;;;;;;5034489;28;20053;-76
2021/01/17 01:27:45;;;;;;;36.70;22.03;;;2.40;85.40;;;;;;5053259;28;20425;-75
2021/01/17 01:30:11;;;;;;;37.03;22.53;;;2.30;85.20;;;;;;5018953;28;20033;-77
2021/01/17 01:32:36;;;;;;;35.97;21.93;;;2.40;85.80;;;;;;5052042;28;20039;-76
2021/01/17 01:35:03;;;;;;;33.77;20.03;;;2.40;86.00;;;;;;5034860;28;20404;-74
2021/01/17 01:37:28;;;;;;;35.10;21.90;;;2.50;86.00;;;;;;5018222;28;20029;-75
2021/01/17 01:39:54;;;;;;;39.17;22.50;;;2.50;85.80;;;;;;5018464;28;20025;-75
2021/01/17 01:42:19;;;;;;;33.73;21.13;;;2.50;85.30;;;;;;5034398;28;20047;-75
2021/01/17 01:44:45;;;;;;;35.63;21.93;;;2.50;85.70;;;;;;5052603;28;20120;-74
2021/01/17 01:47:16;;;;;;;33.33;20.77;;;2.60;86.00;;;;;;5035399;28;20060;-75
2021/01/17 01:49:42;;;;;;;37.97;22.37;;;2.50;85.70;;;;;;5034249;28;20119;-76
2021/01/17 01:52:12;;;;;;;36.80;20.83;;;2.60;85.90;;;;;;5018517;28;20052;-75
2021/01/17 01:54:39;;;;;;;35.03;20.50;;;2.60;85.80;;;;;;5051743;28;20021;-74
2021/01/17 01:57:05;;;;;;;36.03;21.50;;;2.70;86.30;;;;;;5019141;28;20037;-75
2021/01/17 01:59:32;;;;;;;33.17;19.80;;;2.80;86.30;;;;;;5033213;28;20120;-74
2021/01/17 02:01:58;;;;;;;31.70;19.27;;;2.80;86.10;;;;;;5035215;28;20067;-75
2021/01/17 02:04:24;;;;;;;34.80;21.40;;;2.90;86.30;;;;;;5034716;28;20082;-75
2021/01/17 02:07:13;;;;;;;35.17;21.10;;;2.90;86.20;;;;;;5018453;28;20408;-74
2021/01/17 02:09:40;;;;;;;32.73;19.77;;;2.80;85.50;;;;;;5034754;28;20508;-77
2021/01/17 02:12:21;;;;;;;33.77;20.10;;;2.70;85.60;;;;;;5052601;28;20076;-75
2021/01/17 02:14:52;;;;;;;34.40;21.03;;;2.80;85.80;;;;;;5052343;28;20044;-75
2021/01/17 02:17:20;;;;;;;34.97;21.47;;;2.80;85.60;;;;;;5034470;28;20461;-78
2021/01/17 02:19:57;;;;;;;36.23;22.03;;;2.70;85.40;;;;;;5018492;28;20508;-75
2021/01/17 02:22:24;;;;;;;33.37;19.80;;;2.70;85.50;;;;;;5035138;28;20373;-75
2021/01/17 02:25:02;;;;;;;33.37;20.27;;;2.70;86.00;;;;;;5018989;28;20057;-75
2021/01/17 02:27:30;;;;;;;33.97;21.83;;;2.70;86.00;;;;;;5035165;28;20025;-76
2021/01/17 02:29:58;;;;;;;33.37;21.30;;;2.70;85.70;;;;;;5053304;28;20029;-75
2021/01/17 02:32:27;;;;;;;36.07;21.60;;;2.70;85.90;;;;;;5035261;28;20041;-75
2021/01/17 02:34:54;;;;;;;34.83;20.33;;;2.70;85.60;;;;;;5034569;28;20086;-75
2021/01/17 02:37:43;;;;;;;36.80;21.37;;;2.70;85.60;;;;;;5018186;28;20040;-84
2021/01/17 02:40:34;;;;;;;37.73;20.57;;;2.70;85.40;;;;;;5034584;28;20028;-75
2021/01/17 02:43:02;;;;;;;35.47;21.30;;;2.70;85.70;;;;;;5052905;28;20082;-74
2021/01/17 02:45:27;;;;;;;32.00;19.20;;;2.70;85.70;;;;;;5052360;28;20032;-76
2021/01/17 02:47:53;;;;;;;32.67;20.17;;;2.80;86.00;;;;;;5019580;28;20393;-74
2021/01/17 02:50:19;;;;;;;37.10;22.50;;;2.80;85.80;;;;;;5038681;28;20029;-76
2021/01/17 02:53:01;;;;;;;33.60;20.17;;;2.80;85.60;;;;;;5039269;28;20051;-77
2021/01/17 02:55:30;;;;;;;34.37;20.27;;;2.80;86.00;;;;;;5034514;28;20383;-75
2021/01/17 02:57:59;;;;;;;41.13;23.27;;;2.90;86.00;;;;;;5052078;28;20068;-75
2021/01/17 03:00:26;;;;;;;39.83;22.67;;;2.90;85.20;;;;;;5052483;28;20104;-80
2021/01/17 03:02:56;;;;;;;37.53;22.70;;;2.70;84.90;;;;;;5018262;28;20029;-75
2021/01/17 03:05:23;;;;;;;37.63;20.90;;;2.60;84.80;;;;;;5033896;28;20025;-78
2021/01/17 03:07:54;;;;;;;40.57;24.23;;;2.50;85.50;;;;;;5018078;28;20031;-75
2021/01/17 03:10:21;;;;;;;36.90;22.70;;;2.60;85.70;;;;;;5052587;28;20087;-75
2021/01/17 03:12:47;;;;;;;41.03;22.77;;;2.50;85.50;;;;;;5034005;28;20036;-75
2021/01/17 03:15:15;;;;;;;37.50;22.87;;;2.40;85.80;;;;;;5034292;28;20019;-75
2021/01/17 03:17:40;;;;;;;34.83;20.90;;;2.40;86.10;;;;;;5034111;28;20036;-75
2021/01/17 03:20:07;;;;;;;37.27;21.03;;;2.50;86.30;;;;;;5051910;28;20036;-75
2021/01/17 03:22:33;;;;;;;36.30;21.20;;;2.50;86.30;;;;;;5017782;28;20068;-75
2021/01/17 03:24:59;;;;;;;33.33;19.83;;;2.60;86.50;;;;;;5052632;28;20564;-75
2021/01/17 03:27:25;;;;;;;37.40;21.23;;;2.60;86.40;;;;;;5018488;28;20111;-83
2021/01/17 03:29:50;;;;;;;38.87;21.90;;;2.70;86.30;;;;;;5018198;28;20025;-76
2021/01/17 03:32:16;;;;;;;31.93;19.40;;;2.70;86.00;;;;;;5034853;28;20439;-75
2021/01/17 03:34:47;;;;;;;34.17;19.80;;;2.70;86.30;;;;;;5034506;28;20537;-75
2021/01/17 03:37:16;;;;;;;32.03;19.87;;;2.80;86.20;;;;;;5003771;28;20029;-75
2021/01/17 03:39:42;;;;;;;33.33;20.20;;;2.80;86.10;;;;;;5034481;28;20029;-74
2021/01/17 03:42:09;;;;;;;31.67;19.33;;;2.90;86.60;;;;;;5052742;28;20033;-75
2021/01/17 03:44:35;;;;;;;33.30;19.33;;;3.00;86.60;;;;;;5018126;28;20021;-75
2021/01/17 03:47:00;;;;;;;33.80;21.07;;;3.10;86.30;;;;;;5052480;28;20473;-74
2021/01/17 03:49:26;;;;;;;32.20;19.83;;;3.10;86.00;;;;;;5018434;28;20055;-76
2021/01/17 03:51:52;;;;;;;30.50;18.80;;;3.00;85.90;;;;;;5018463;28;20094;-75
2021/01/17 03:54:17;;;;;;;34.17;21.20;;;3.00;86.10;;;;;;5035123;28;20475;-75
2021/01/17 03:56:43;;;;;;;34.93;20.53;;;3.00;85.90;;;;;;5018387;28;20144;-76
2021/01/17 03:59:08;;;;;;;34.47;19.80;;;2.90;85.70;;;;;;5018414;28;20033;-74
2021/01/17 04:01:34;;;;;;;32.80;19.63;;;2.90;86.10;;;;;;5017776;28;20477;-75
2021/01/17 04:04:00;;;;;;;33.57;19.57;;;3.00;86.20;;;;;;5018495;28;20044;-75
2021/01/17 04:06:25;;;;;;;35.23;19.63;;;3.00;86.10;;;;;;5018694;28;20094;-75
2021/01/17 04:08:51;;;;;;;32.97;18.63;;;3.00;86.00;;;;;;5034090;28;20017;-75
2021/01/17 04:11:17;;;;;;;29.17;17.73;;;3.00;86.10;;;;;;5033909;28;20481;-75
2021/01/17 04:13:43;;;;;;;33.37;19.27;;;3.00;86.30;;;;;;5033933;28;20068;-75
2021/01/17 04:16:09;;;;;;;31.57;18.53;;;3.10;86.50;;;;;;5034304;28;20076;-76
2021/01/17 04:18:35;;;;;;;31.87;19.27;;;3.10;86.20;;;;;;5037227;28;20552;-76
2021/01/17 04:21:00;;;;;;;34.10;19.40;;;3.10;86.20;;;;;;5037922;28;20039;-74
2021/01/17 04:23:26;;;;;;;33.60;19.37;;;3.10;86.20;;;;;;5037928;28;20120;-73
2021/01/17 04:25:52;;;;;;;33.80;20.57;;;3.10;86.10;;;;;;5021251;28;20079;-73
2021/01/17 04:28:17;;;;;;;32.97;19.13;;;3.10;86.20;;;;;;5037937;28;20528;-74
2021/01/17 04:30:43;;;;;;;33.33;18.77;;;3.10;86.20;;;;;;5055305;28;20492;-74
2021/01/17 04:33:09;;;;;;;30.20;17.67;;;3.10;86.30;;;;;;5055678;28;20040;-74
2021/01/17 04:35:34;;;;;;;34.63;19.30;;;3.10;86.30;;;;;;5037782;28;20029;-76
2021/01/17 04:38:00;;;;;;;35.50;20.50;;;3.10;86.10;;;;;;5005028;28;20079;-74
2021/01/17 04:40:27;;;;;;;35.27;20.80;;;3.10;86.00;;;;;;5021328;28;20041;-74
2021/01/17 04:43:17;;;;;;;34.83;20.93;;;3.00;85.90;;;;;;5037074;28;20040;-73
2021/01/17 04:45:42;;;;;;;33.53;18.97;;;2.90;85.90;;;;;;5054846;28;20024;-74
2021/01/17 04:48:08;;;;;;;34.03;19.53;;;2.80;86.30;;;;;;5004426;28;20469;-73
2021/01/17 04:50:34;;;;;;;33.13;19.80;;;2.90;86.60;;;;;;5037149;28;20535;-74
2021/01/17 04:53:05;;;;;;;31.30;18.03;;;2.90;86.30;;;;;;5037121;28;20029;-74
2021/01/17 04:55:37;;;;;;;31.10;17.70;;;2.90;86.50;;;;;;5037019;28;20029;-74
2021/01/17 04:58:15;;;;;;;30.77;17.23;;;3.10;86.70;;;;;;5036949;28;20487;-75
2021/01/17 05:00:41;;;;;;;30.27;18.73;;;3.20;86.70;;;;;;5054702;28;20544;-74
2021/01/17 05:03:19;;;;;;;32.53;18.20;;;3.20;86.50;;;;;;5055214;28;20083;-74
2021/01/17 05:06:09;;;;;;;30.33;17.90;;;3.20;86.20;;;;;;5054353;28;20465;-74
2021/01/17 05:08:35;;;;;;;32.50;18.73;;;3.20;86.40;;;;;;5054653;28;20504;-78
2021/01/17 05:11:03;;;;;;;31.27;18.73;;;3.20;86.00;;;;;;5020097;28;20128;-74
2021/01/17 05:13:33;;;;;;;30.60;17.97;;;3.10;86.20;;;;;;5055064;28;20021;-74
2021/01/17 05:16:04;;;;;;;31.13;18.13;;;3.10;86.30;;;;;;5036569;28;20021;-74
2021/01/17 05:18:30;;;;;;;30.53;16.67;;;3.10;86.40;;;;;;5055081;28;20029;-76
2021/01/17 05:21:01;;;;;;;30.53;16.87;;;3.10;86.40;;;;;;5054522;28;20112;-73
2021/01/17 05:23:33;;;;;;;29.43;17.40;;;3.20;86.80;;;;;;5054803;28;20039;-74
2021/01/17 05:26:03;;;;;;;27.20;16.10;;;3.30;86.80;;;;;;5036651;28;20025;-74
2021/01/17 05:28:30;;;;;;;30.00;16.93;;;3.30;86.60;;;;;;5019820;28;20120;-75
2021/01/17 05:30:57;;;;;;;28.00;16.47;;;3.40;86.70;;;;;;5036699;28;20033;-75
2021/01/17 05:33:29;;;;;;;28.30;16.47;;;3.40;86.50;;;;;;5036910;28;20025;-76
2021/01/17 05:35:56;;;;;;;31.65;18.27;;;3.40;86.50;;;;;;5036945;28;20437;-75
2021/01/17 05:38:22;;;;;;;29.40;17.40;;;3.40;86.20;;;;;;5037030;28;20055;-75
2021/01/17 05:40:48;;;;;;;26.03;16.00;;;3.30;86.00;;;;;;5020078;28;20098;-75
2021/01/17 05:43:14;;;;;;;27.27;15.60;;;3.30;86.00;;;;;;5020641;28;20029;-75
2021/01/17 05:45:39;;;;;;;28.03;16.73;;;3.30;87.10;;;;;;5036642;28;20086;-77
2021/01/17 05:48:06;;;;;;;28.10;16.70;;;3.30;86.10;;;;;;5037100;28;20050;-75
2021/01/17 05:50:33;;;;;;;25.70;15.37;;;3.20;86.10;;;;;;5054280;28;20033;-75
2021/01/17 05:53:04;;;;;;;24.93;14.67;;;3.20;86.40;;;;;;5036638;28;20033;-76
2021/01/17 05:55:40;;;;;;;26.50;16.13;;;3.20;86.40;;;;;;5019824;28;20086;-76
2021/01/17 05:58:26;;;;;;;25.30;15.07;;;3.30;86.60;;;;;;5035405;28;20049;-78
2021/01/17 06:00:56;;;;;;;26.63;14.67;;;3.30;86.60;;;;;;5035173;28;20085;-77
2021/01/17 06:03:31;;;;;;;23.93;13.50;;;3.30;86.40;;;;;;5035983;28;20492;-77
2021/01/17 06:06:05;;;;;;;21.03;12.83;;;3.30;86.50;;;;;;5052979;28;20021;-78
2021/01/17 06:08:31;;;;;;;22.73;13.70;;;3.40;86.80;;;;;;5053019;28;20041;-77
2021/01/17 06:11:16;;;;;;;22.63;14.10;;;3.40;86.90;;;;;;5052381;28;20045;-78
2021/01/17 06:13:42;;;;;;;23.17;13.37;;;3.40;86.80;;;;;;5019169;28;20037;-78
2021/01/17 06:16:29;;;;;;;23.00;14.80;;;3.50;87.00;;;;;;5018571;28;20040;-78
2021/01/17 06:18:57;;;;;;;24.40;13.97;;;3.50;86.60;;;;;;5035309;28;20037;-77
2021/01/17 06:21:24;;;;;;;24.77;15.67;;;3.50;86.60;;;;;;5035497;28;20029;-78
2021/01/17 06:23:54;;;;;;;27.40;16.43;;;3.50;86.20;;;;;;5031482;28;20045;-78
2021/01/17 06:26:28;;;;;;;24.27;14.37;;;3.40;85.90;;;;;;5033545;28;20254;-79
2021/01/17 06:28:54;;;;;;;24.40;14.83;;;3.20;86.20;;;;;;5033236;28;20144;-78
2021/01/17 06:31:28;;;;;;;22.13;13.60;;;3.30;86.60;;;;;;5015472;28;20061;-78
2021/01/17 06:34:15;;;;;;;23.13;13.87;;;3.30;86.80;;;;;;5031720;28;20021;-78
2021/01/17 06:36:46;;;;;;;24.43;15.17;;;3.40;86.80;;;;;;5031821;28;20044;-77
2021/01/17 06:39:25;;;;;;;26.70;14.53;;;3.30;86.60;;;;;;5033117;28;20018;-78
2021/01/17 06:41:57;;;;;;;23.97;14.40;;;3.30;86.70;;;;;;5030832;28;20370;-78
2021/01/17 06:44:33;;;;;;;25.40;14.97;;;3.30;86.80;;;;;;5033010;28;20029;-78
2021/01/17 06:46:59;;;;;;;23.10;14.90;;;3.40;87.00;;;;;;5031496;28;20029;-78
2021/01/17 06:49:29;;;;;;;22.70;14.30;;;3.50;87.10;;;;;;5014795;28;20057;-77
2021/01/17 06:51:55;;;;;;;23.70;14.30;;;3.40;87.00;;;;;;5030017;28;20389;-77
2021/01/17 06:54:23;;;;;;;23.83;14.63;;;3.50;86.90;;;;;;5030539;28;20450;-78
2021/01/17 06:56:50;;;;;;;22.33;13.57;;;3.50;86.70;;;;;;5031505;28;20465;-83
2021/01/17 06:59:35;;;;;;;21.90;13.40;;;3.60;87.50;;;;;;5030727;28;20030;-78
2021/01/17 07:02:29;;;;;;;22.27;12.73;;;3.70;87.10;;;;;;5030483;28;20053;-77
2021/01/17 07:05:15;;;;;;;;;;;3.70;87.00;;;;;;4985548;28;20038;-78
2021/01/17 07:08:05;;;;;;;24.00;13.60;;;3.80;87.00;;;;;;5024429;28;19998;-77
2021/01/17 07:10:41;;;;;;;25.37;13.90;;;3.90;87.30;;;;;;5029508;28;20049;-78
2021/01/17 07:13:09;;;;;;;23.57;14.50;;;3.90;86.80;;;;;;5030320;28;20033;-79
2021/01/17 07:15:37;;;;;;;25.60;14.97;;;3.90;86.80;;;;;;5010231;28;20032;-79
2021/01/17 07:18:07;;;;;;;26.97;16.37;;;3.90;86.60;;;;;;5014998;28;20029;-79
2021/01/17 07:20:41;;;;;;;27.30;16.33;;;3.70;85.90;;;;;;5027604;28;20105;-79
2021/01/17 07:23:09;;;;;;;27.53;15.70;;;3.70;86.50;;;;;;5031178;28;20026;-79
2021/01/17 07:25:42;;;;;;;27.10;15.50;;;3.60;86.40;;;;;;5029699;28;20049;-79
2021/01/17 07:28:16;;;;;;;28.00;15.40;;;3.50;86.30;;;;;;5028949;28;20022;-79
2021/01/17 07:30:50;;;;;;;24.67;14.43;;;3.50;86.80;;;;;;5030314;28;20033;-79
2021/01/17 07:33:21;;;;;;;23.27;13.63;;;3.70;87.20;;;;;;5027725;28;20720;-80
2021/01/17 07:35:47;;;;;;;24.20;13.97;;;3.70;87.00;;;;;;5029361;28;20029;-80
2021/01/17 07:38:16;;;;;;;24.63;12.90;;;3.70;87.10;;;;;;5028481;28;20070;-80
2021/01/17 07:40:54;;;;;;;23.30;13.30;;;3.80;87.20;;;;;;5030587;28;20116;-80
2021/01/17 07:43:28;;;;;;;22.00;14.20;;;4.00;87.30;;;;;;5029806;28;20029;-81
2021/01/17 07:45:59;;;;;;;26.33;15.23;;;4.00;87.20;;;;;;5011059;28;20121;-79
2021/01/17 07:48:25;;;;;;;22.70;13.93;;;4.00;86.80;;;;;;5028417;28;20013;-79
2021/01/17 07:50:54;;;;;;;22.63;13.23;;;4.00;87.00;;;;;;5029516;28;20038;-79
2021/01/17 07:53:38;;;;;;;24.60;15.37;;;4.00;87.10;;;;;;5032754;28;20032;-80
2021/01/17 07:56:15;;;;;;;26.70;14.67;;;4.10;86.80;;;;;;5034520;28;20049;-80
2021/01/17 07:58:52;;;;;;;25.40;14.70;;;4.00;86.70;;;;;;5034845;28;20484;-79
2021/01/17 08:01:36;;;;;;;27.80;15.10;;;4.00;86.60;;;;;;5032349;28;20087;-78
2021/01/17 08:04:01;;;;;;;28.93;15.17;;;4.00;86.50;;;;;;5033078;28;20099;-79
2021/01/17 08:06:36;;;;;;;28.07;15.13;;;3.90;86.30;;;;;;5033296;28;20064;-78
2021/01/17 08:09:05;;;;;;;30.17;15.20;;;4.00;87.00;;;;;;5033152;28;20040;-79
2021/01/17 08:11:51;;;;;;;31.97;17.13;;;4.10;86.90;;;;;;5033382;28;20505;-79
2021/01/17 08:14:33;;;;;;;30.90;15.90;;;4.20;87.00;;;;;;5033044;28;20037;-79
2021/01/17 08:17:12;;;;;;;37.40;18.10;;;4.30;86.80;;;;;;5027192;28;20496;-81
2021/01/17 08:19:54;;;;;;;36.80;19.27;;;4.30;86.60;;;;;;5032279;28;20112;-78
2021/01/17 08:22:23;;;;;;;37.33;19.33;;;4.30;86.60;;;;;;5033589;28;20025;-80
2021/01/17 08:24:59;;;;;;;44.13;20.47;;;4.20;86.10;;;;;;5032796;28;20393;-80
2021/01/17 08:27:31;;;;;;;39.40;20.70;;;4.20;86.00;;;;;;5031369;28;20029;-79
2021/01/17 08:30:10;;;;;;;37.63;18.40;;;4.10;85.90;;;;;;5032781;28;20050;-79
2021/01/17 08:32:45;;;;;;;35.83;19.73;;;4.20;86.30;;;;;;5034413;28;20060;-79
2021/01/17 08:35:20;;;;;;;42.47;22.03;;;4.20;86.20;;;;;;5028616;28;20084;-80
2021/01/17 08:37:57;;;;;;;43.47;22.57;;;4.30;86.30;;;;;;5032071;28;20026;-79
2021/01/17 08:40:28;;;;;;;51.67;25.40;;;4.50;86.60;;;;;;5029114;28;20025;-79
2021/01/17 08:42:59;;;;;;;52.03;26.63;;;4.60;86.50;;;;;;5032784;28;20481;-78
2021/01/17 08:45:27;;;;;;;55.03;26.13;;;4.70;86.50;;;;;;5028669;28;20703;-79
2021/01/17 08:47:55;;;;;;;52.03;26.83;;;4.80;86.10;;;;;;5032370;28;20032;-79
2021/01/17 08:50:29;;;;;;;52.07;26.80;;;5.00;86.30;;;;;;5032761;28;20453;-77
2021/01/17 08:53:09;;;;;;;51.53;28.47;;;5.10;86.40;;;;;;5034183;28;20124;-81
2021/01/17 08:55:49;;;;;;;57.23;28.83;;;5.30;86.30;;;;;;5033134;28;20033;-79
2021/01/17 08:58:27;;;;;;;54.20;28.83;;;5.40;86.40;;;;;;5033051;28;20129;-77
2021/01/17 09:00:52;;;;;;;57.00;27.70;;;5.40;85.90;;;;;;5035084;28;20025;-78
2021/01/17 09:03:27;;;;;;;54.73;27.67;;;5.40;85.60;;;;;;5032033;28;20124;-78
2021/01/17 09:05:54;;;;;;;55.00;28.30;;;5.50;85.80;;;;;;5033415;28;20030;-79
2021/01/17 09:08:21;;;;;;;60.93;29.07;;;5.50;85.60;;;;;;5034221;28;20026;-78
2021/01/17 09:10:47;;;;;;;56.27;29.43;;;5.50;85.50;;;;;;5032974;28;20116;-78
2021/01/17 09:13:20;;;;;;;53.87;28.50;;;5.50;85.50;;;;;;5034458;28;20022;-78
2021/01/17 09:15:56;;;;;;;58.40;29.00;;;5.50;85.40;;;;;;5032674;28;20045;-80
2021/01/17 09:18:27;;;;;;;55.87;29.10;;;5.60;85.50;;;;;;5032832;28;20017;-77
2021/01/17 09:20:54;;;;;;;56.87;27.83;;;5.60;85.50;;;;;;5026304;28;20033;-79
2021/01/17 09:23:21;;;;;;;54.43;28.10;;;5.60;85.40;;;;;;5032907;28;20049;-77
2021/01/17 09:25:54;;;;;;;58.43;29.37;;;5.60;85.40;;;;;;5036490;28;20087;-76
2021/01/17 09:28:20;;;;;;;53.05;28.52;;;5.70;85.30;;;;;;5053972;28;20036;-80
2021/01/17 09:30:50;;;;;;;53.50;25.87;;;5.60;85.10;;;;;;5053930;28;20032;-76
2021/01/17 09:33:16;;;;;;;61.67;26.27;;;5.60;85.20;;;;;;5042862;28;20041;-78
2021/01/17 09:35:43;;;;;;;57.97;28.13;;;5.60;85.30;;;;;;5048692;28;20070;-78
2021/01/17 09:38:17;;;;;;;66.67;31.70;;;5.60;85.40;;;;;;5036161;28;20063;-85
2021/01/17 09:40:52;;;;;;;57.10;28.40;;;5.70;85.70;;;;;;5047850;28;20072;-78
2021/01/17 09:43:18;;;;;;;58.47;28.13;;;5.80;85.60;;;;;;5052687;28;20017;-83
2021/01/17 09:45:51;;;;;;;55.97;27.60;;;5.80;85.40;;;;;;5035179;28;20547;-77
2021/01/17 09:48:18;;;;;;;60.77;28.53;;;6.00;85.30;;;;;;5053350;28;20068;-76
2021/01/17 09:50:44;;;;;;;63.00;31.40;;;6.10;85.20;;;;;;5035783;28;20033;-75
2021/01/17 09:53:10;;;;;;;59.47;30.00;;;6.20;85.20;;;;;;5035459;28;20099;-76
2021/01/17 09:55:39;;;;;;;66.47;32.97;;;6.30;85.40;;;;;;5034819;28;20039;-75
2021/01/17 09:58:10;;;;;;;58.00;29.83;;;6.50;85.30;;;;;;5035333;28;20044;-75
2021/01/17 10:00:37;;;;;;;56.43;28.03;;;6.60;84.90;;;;;;5035141;28;20056;-74
2021/01/17 10:03:10;;;;;;;53.03;26.87;;;6.70;84.50;;;;;;5035425;28;20025;-75
2021/01/17 10:05:38;;;;;;;53.00;29.33;;;6.70;84.20;;;;;;5018634;28;20045;-74
2021/01/17 10:08:06;;;;;;;55.53;26.93;;;6.80;84.20;;;;;;5053154;28;20024;-73
2021/01/17 10:10:33;;;;;;;57.07;27.40;;;6.90;84.30;;;;;;5051708;28;20029;-73
2021/01/17 10:12:59;;;;;;;51.40;25.30;;;7.10;84.10;;;;;;5051988;28;20037;-73
2021/01/17 10:15:25;;;;;;;56.53;29.23;;;7.20;83.60;;;;;;5050243;28;20033;-74
2021/01/17 10:17:52;;;;;;;47.63;25.33;;;7.40;83.60;;;;;;5035173;28;20060;-74
2021/01/17 10:20:28;;;;;;;46.13;23.37;;;7.60;83.40;;;;;;5052102;28;20469;-75
2021/01/17 10:22:58;;;;;;;44.03;22.70;;;7.70;83.10;;;;;;5034720;28;20031;-76
2021/01/17 10:25:25;;;;;;;44.33;20.37;;;7.90;82.90;;;;;;5033630;28;20103;-75
2021/01/17 10:28:09;;;;;;;46.50;21.60;;;8.10;82.10;;;;;;5034640;28;20495;-75
2021/01/17 10:30:40;;;;;;;44.77;20.13;;;8.40;81.80;;;;;;5049840;28;20104;-74
2021/01/17 10:33:08;;;;;;;44.30;21.07;;;8.70;81.10;;;;;;5050009;28;20029;-75
2021/01/17 10:35:36;;;;;;;43.93;19.43;;;9.10;80.20;;;;;;5034052;28;20025;-76
2021/01/17 10:38:04;;;;;;;42.43;19.17;;;9.40;79.30;;;;;;5034156;28;20385;-75
2021/01/17 10:40:30;;;;;;;35.17;16.00;;;9.50;78.60;;;;;;5030166;28;20032;-75
2021/01/17 10:43:00;;;;;;;35.37;18.37;;;9.40;77.90;;;;;;5051763;28;20028;-74
2021/01/17 10:45:27;;;;;;;44.13;19.80;;;9.30;78.20;;;;;;5049652;28;20542;-76
2021/01/17 10:48:05;;;;;;;43.50;18.13;;;9.30;78.60;;;;;;5051946;28;20393;-74
2021/01/17 10:50:36;;;;;;;37.47;16.53;;;9.40;78.80;;;;;;5051235;28;20112;-74
2021/01/17 10:53:10;;;;;;;38.57;16.77;;;9.50;78.60;;;;;;5052883;28;20098;-74
2021/01/17 10:55:38;;;;;;;41.93;17.10;;;9.60;78.50;;;;;;5051646;28;20024;-75
2021/01/17 10:58:04;;;;;;;35.33;16.57;;;9.60;78.20;;;;;;5034463;28;20075;-74
2021/01/17 11:00:30;;;;;;;43.87;19.30;;;9.60;78.20;;;;;;5051638;28;20214;-75
2021/01/17 11:03:08;;;;;;;53.73;19.97;;;9.50;78.30;;;;;;5051545;28;20396;-74
2021/01/17 11:05:34;;;;;;;37.77;14.97;;;9.50;79.00;;;;;;5034008;28;20036;-74
2021/01/17 11:08:00;;;;;;;40.83;16.23;;;9.50;79.20;;;;;;5034518;28;20358;-74
2021/01/17 11:10:26;;;;;;;44.23;15.03;;;9.40;79.30;;;;;;5033740;28;20040;-75
2021/01/17 11:12:52;;;;;;;36.13;13.13;;;9.40;79.60;;;;;;5018815;28;20033;-75
2021/01/17 11:15:21;;;;;;;37.23;12.40;;;9.50;79.70;;;;;;5034189;28;20388;-74
2021/01/17 11:17:55;;;;;;;37.73;14.63;;;9.50;79.50;;;;;;5052066;28;20151;-73
2021/01/17 11:20:33;;;;;;;36.90;13.10;;;9.40;79.60;;;;;;5034698;28;20048;-75
2021/01/17 11:23:06;;;;;;;36.97;13.43;;;9.50;79.40;;;;;;5034595;28;20017;-75
2021/01/17 11:25:33;;;;;;;38.33;12.40;;;9.60;79.60;;;;;;5052161;28;20516;-75
2021/01/17 11:28:01;;;;;;;40.43;13.27;;;9.70;79.40;;;;;;5034432;28;20064;-75
2021/01/17 11:30:29;;;;;;;39.80;13.30;;;9.70;79.00;;;;;;5051619;28;20021;-82
2021/01/17 11:33:12;;;;;;;34.33;13.50;;;9.70;79.00;;;;;;5032476;28;20037;-75
2021/01/17 11:35:39;;;;;;;32.28;10.60;;;9.60;79.30;;;;;;5032393;28;20028;-75
2021/01/17 11:38:06;;;;;;;28.10;9.47;;;9.80;79.20;;;;;;5014850;28;20102;-74
2021/01/17 11:40:31;;;;;;;27.10;9.80;;;9.80;78.90;;;;;;5045327;28;20799;-75
2021/01/17 11:43:12;;;;;;;30.97;11.40;;;9.90;79.10;;;;;;5034742;28;20025;-75
2021/01/17 11:45:39;;;;;;;33.63;10.80;;;10.10;78.90;;;;;;5034161;28;20040;-76
2021/01/17 11:48:05;;;;;;;31.07;9.97;;;10.10;78.40;;;;;;5052435;28;20354;-76
2021/01/17 11:50:31;;;;;;;32.40;10.40;;;10.20;78.20;;;;;;5051855;28;20025;-76
2021/01/17 11:53:03;;;;;;;32.67;13.70;;;10.10;78.20;;;;;;5050808;28;20033;-76
2021/01/17 11:55:30;;;;;;;22.35;10.50;;;10.00;78.30;;;;;;5034283;28;20060;-81
2021/01/17 11:58:16;;;;;;;37.67;11.27;;;9.80;78.40;;;;;;5050935;28;20027;-75
2021/01/17 12:00:49;;;;;;;31.77;9.07;;;9.60;78.80;;;;;;5037238;28;20495;-75
2021/01/17 12:03:29;;;;;;;30.77;10.47;;;9.40;79.00;;;;;;5018620;28;20607;-77
2021/01/17 12:06:17;;;;;;;34.83;9.73;;;9.40;79.40;;;;;;5026865;28;20021;-75
2021/01/17 12:09:08;;;;;;;30.17;10.17;;;9.40;79.40;;;;;;5041267;28;20017;-80
2021/01/17 12:11:44;;;;;;;31.10;10.30;;;9.50;79.90;;;;;;5036304;28;20069;-77
2021/01/17 12:14:24;;;;;;;27.00;9.13;;;9.60;80.00;;;;;;5051430;28;20469;-76
2021/01/17 12:16:55;;;;;;;27.83;7.73;;;9.70;79.60;;;;;;5033191;28;20022;-76
2021/01/17 12:19:22;;;;;;;29.73;9.13;;;9.70;79.10;;;;;;5033376;28;20511;-76
2021/01/17 12:21:51;;;;;;;34.00;10.43;;;9.70;79.10;;;;;;5031422;28;20030;-77
2021/01/17 12:24:17;;;;;;;31.80;10.37;;;9.60;79.00;;;;;;5030341;28;20490;-76
2021/01/17 12:26:45;;;;;;;35.33;12.73;;;9.50;79.40;;;;;;5030587;28;20030;-77
2021/01/17 12:29:12;;;;;;;30.13;10.70;;;9.40;79.90;;;;;;5030574;28;20021;-76
2021/01/17 12:31:38;;;;;;;28.27;8.03;;;9.40;80.00;;;;;;5026167;28;20404;-77
2021/01/17 12:34:05;;;;;;;28.97;9.67;;;9.40;79.70;;;;;;5051233;28;20116;-77
2021/01/17 12:36:33;;;;;;;24.50;8.27;;;9.40;79.70;;;;;;5052286;28;20492;-81
2021/01/17 12:38:59;;;;;;;26.93;8.50;;;9.40;79.40;;;;;;5052342;28;20021;-77
2021/01/17 12:41:27;;;;;;;27.23;10.17;;;9.40;79.30;;;;;;5020721;28;20040;-77
2021/01/17 12:43:53;;;;;;;29.07;11.37;;;9.40;79.60;;;;;;5037694;28;20636;-77
2021/01/17 12:46:20;;;;;;;26.40;7.67;;;9.30;79.80;;;;;;5021041;28;20033;-77
2021/01/17 12:48:46;;;;;;;24.70;7.67;;;9.30;79.80;;;;;;5020440;28;20083;-77
2021/01/17 12:51:12;;;;;;;27.63;8.90;;;9.30;80.30;;;;;;5055167;28;20071;-78